Time;durP1;ratioP1;P1;durP2;ratioP2;P2;SDS_P1;SDS_P2;PMS_P1;PMS_P2;Temp;Humidity;BMP_temperature;BMP_pressure;BME280_temperature;BME280_humidity;BME280_pressure;Samples;Min_cycle;Max_cycle;Signal;HPM_P1;HPM_P2
2022/12/09 00:02:02;;;;;;;14.32;6.93;;;3.20;99.90;;;;;;4996118;28;20072;-65
2022/12/09 00:04:27;;;;;;;11.18;6.30;;;3.40;99.90;;;;;;4996385;28;20032;-66
2022/12/09 00:06:53;;;;;;;16.67;8.02;;;3.50;99.90;;;;;;4995038;28;20054;-66
2022/12/09 00:09:18;;;;;;;17.08;7.13;;;3.60;99.90;;;;;;4996512;28;20496;-66
2022/12/09 00:11:44;;;;;;;12.82;6.93;;;3.70;99.90;;;;;;4995028;28;20030;-66
2022/12/09 00:14:11;;;;;;;20.20;7.72;;;3.70;99.90;;;;;;4996160;28;20035;-66
2022/12/09 00:16:37;;;;;;;16.92;7.57;;;3.70;99.90;;;;;;4996574;28;20089;-68
2022/12/09 00:19:03;;;;;;;15.13;6.78;;;3.60;99.90;;;;;;4995013;28;20030;-66
2022/12/09 00:21:31;;;;;;;16.20;7.60;;;3.60;99.90;;;;;;4996611;28;20026;-66
2022/12/09 00:23:59;;;;;;;14.82;7.07;;;3.60;99.90;;;;;;4996363;28;20150;-66
2022/12/09 00:26:26;;;;;;;19.58;7.65;;;3.50;99.90;;;;;;4995031;28;20030;-66
2022/12/09 00:28:53;;;;;;;15.70;7.40;;;3.50;99.90;;;;;;4995154;28;20029;-66
2022/12/09 00:31:23;;;;;;;19.25;7.30;;;3.50;99.90;;;;;;4996421;28;20026;-66
2022/12/09 00:33:49;;;;;;;14.20;6.50;;;3.40;99.90;;;;;;4996253;28;20029;-66
2022/12/09 00:36:18;;;;;;;21.25;7.47;;;3.30;99.90;;;;;;4995498;28;20030;-66
2022/12/09 00:38:44;;;;;;;16.52;7.45;;;3.10;99.90;;;;;;4996111;28;20026;-66
2022/12/09 00:41:11;;;;;;;17.23;6.60;;;3.10;99.90;;;;;;4996416;28;20034;-66
2022/12/09 00:43:36;;;;;;;14.02;6.95;;;3.20;99.90;;;;;;4996734;28;20046;-66
2022/12/09 00:46:02;;;;;;;13.43;6.28;;;3.30;99.90;;;;;;4994907;28;20026;-66
2022/12/09 00:48:28;;;;;;;15.00;7.18;;;3.30;99.90;;;;;;4995032;28;20022;-66
2022/12/09 00:50:54;;;;;;;14.05;7.05;;;3.30;99.90;;;;;;4994753;28;20045;-66
2022/12/09 00:53:19;;;;;;;14.68;6.93;;;3.40;99.90;;;;;;4995522;28;20018;-66
2022/12/09 00:55:45;;;;;;;14.88;7.13;;;3.40;99.90;;;;;;4994799;28;20026;-66
2022/12/09 00:58:12;;;;;;;15.73;7.10;;;3.40;99.90;;;;;;4994342;28;20038;-66
2022/12/09 01:00:37;;;;;;;19.88;8.25;;;3.30;99.90;;;;;;4994661;28;20030;-66
2022/12/09 01:03:03;;;;;;;17.15;7.80;;;3.40;99.90;;;;;;4996354;28;20105;-66
2022/12/09 01:05:29;;;;;;;21.70;8.27;;;3.40;99.90;;;;;;4994266;28;20057;-66
2022/12/09 01:08:05;;;;;;;15.43;8.05;;;3.50;99.90;;;;;;4994407;28;20026;-66
2022/12/09 01:10:32;;;;;;;19.35;8.30;;;3.50;99.90;;;;;;4994134;28;20064;-66
2022/12/09 01:12:58;;;;;;;17.17;8.32;;;3.60;99.90;;;;;;4993484;28;20026;-66
2022/12/09 01:15:24;;;;;;;17.23;8.20;;;3.60;99.90;;;;;;4994788;28;20033;-66
2022/12/09 01:17:49;;;;;;;18.35;9.30;;;3.50;99.90;;;;;;4994577;28;20022;-66
2022/12/09 01:20:15;;;;;;;21.83;9.57;;;3.50;99.90;;;;;;4993990;28;20026;-66
2022/12/09 01:22:41;;;;;;;19.60;9.13;;;3.50;99.90;;;;;;4994788;28;20022;-66
2022/12/09 01:25:06;;;;;;;16.10;8.68;;;3.40;99.90;;;;;;4994173;28;20393;-66
2022/12/09 01:27:32;;;;;;;17.52;7.85;;;3.30;99.90;;;;;;4993554;28;20026;-66
2022/12/09 01:29:58;;;;;;;19.33;8.40;;;3.20;99.90;;;;;;4993630;28;20030;-66
2022/12/09 01:32:23;;;;;;;20.02;7.97;;;3.20;99.90;;;;;;4994495;28;20101;-66
2022/12/09 01:34:49;;;;;;;17.63;7.75;;;3.10;99.90;;;;;;4993682;28;20018;-66
2022/12/09 01:37:14;;;;;;;16.60;8.98;;;3.20;99.90;;;;;;4994803;28;20030;-66
2022/12/09 01:39:40;;;;;;;21.88;8.93;;;3.30;99.90;;;;;;4993894;28;20474;-66
2022/12/09 01:42:06;;;;;;;25.92;9.75;;;3.60;99.90;;;;;;4993665;28;20073;-66
2022/12/09 01:44:32;;;;;;;21.38;9.98;;;3.50;99.90;;;;;;4994340;28;20065;-66
2022/12/09 01:47:00;;;;;;;26.23;10.80;;;3.50;99.90;;;;;;4994299;28;20034;-66
2022/12/09 01:49:35;;;;;;;24.30;9.23;;;3.40;99.90;;;;;;4993428;28;20033;-66
2022/12/09 01:52:09;;;;;;;21.25;9.40;;;3.40;99.90;;;;;;4993559;28;20073;-66
2022/12/09 01:54:37;;;;;;;26.45;10.00;;;3.30;99.90;;;;;;4994861;28;20536;-66
2022/12/09 01:57:03;;;;;;;25.35;9.90;;;3.30;99.90;;;;;;4994114;28;20093;-66
2022/12/09 01:59:29;;;;;;;26.40;11.00;;;3.30;99.90;;;;;;5009819;28;20028;-66
2022/12/09 02:01:58;;;;;;;22.88;10.00;;;3.20;99.90;;;;;;4994611;28;20109;-66
2022/12/09 02:04:25;;;;;;;23.92;9.98;;;3.20;99.90;;;;;;4993236;28;20026;-66
2022/12/09 02:06:51;;;;;;;22.83;9.55;;;3.20;99.90;;;;;;4993345;28;20031;-66
2022/12/09 02:09:17;;;;;;;28.30;10.60;;;3.10;99.90;;;;;;4994736;28;20022;-66
2022/12/09 02:12:02;;;;;;;25.70;9.77;;;3.20;99.90;;;;;;4994654;28;20029;-66
2022/12/09 02:14:52;;;;;;;27.02;10.00;;;3.20;99.90;;;;;;4993033;28;20029;-66
2022/12/09 02:17:36;;;;;;;24.23;10.70;;;3.30;99.90;;;;;;4992954;28;20032;-66
2022/12/09 02:20:21;;;;;;;25.63;9.52;;;3.40;99.90;;;;;;4992952;28;20026;-66
2022/12/09 02:22:55;;;;;;;23.35;9.05;;;3.40;99.90;;;;;;4993376;28;20065;-66
2022/12/09 02:25:27;;;;;;;29.05;10.68;;;3.40;99.90;;;;;;4992776;28;20383;-66
2022/12/09 02:28:14;;;;;;;29.23;11.15;;;3.40;99.90;;;;;;4993217;28;20065;-66
2022/12/09 02:31:09;;;;;;;30.40;11.18;;;3.50;99.90;;;;;;4992750;28;20077;-66
2022/12/09 02:34:05;;;;;;;28.55;11.15;;;3.50;99.90;;;;;;4993691;28;20022;-66
2022/12/09 02:36:39;;;;;;;25.83;9.82;;;3.50;99.90;;;;;;4986433;28;20049;-66
2022/12/09 02:39:06;;;;;;;25.08;10.52;;;3.60;99.90;;;;;;4994253;28;20125;-66
2022/12/09 02:41:33;;;;;;;24.95;10.77;;;3.60;99.90;;;;;;4994104;28;20030;-66
2022/12/09 02:44:08;;;;;;;32.38;11.48;;;3.60;99.90;;;;;;4994118;28;20034;-66
2022/12/09 02:46:35;;;;;;;28.75;11.32;;;3.50;99.90;;;;;;4993693;28;20031;-66
2022/12/09 02:49:01;;;;;;;29.45;11.00;;;3.50;99.90;;;;;;4993775;28;20023;-66
2022/12/09 02:51:30;;;;;;;31.95;10.88;;;3.50;99.90;;;;;;4993859;28;20014;-66
2022/12/09 02:54:05;;;;;;;33.42;13.20;;;3.50;99.90;;;;;;4992716;28;20022;-66
2022/12/09 02:56:31;;;;;;;29.63;11.80;;;3.50;99.90;;;;;;4993612;28;20520;-66
2022/12/09 02:58:57;;;;;;;37.63;12.82;;;3.60;99.90;;;;;;4993657;28;20038;-66
2022/12/09 03:01:28;;;;;;;35.92;13.05;;;3.60;99.90;;;;;;4992778;28;20022;-66
2022/12/09 03:03:54;;;;;;;31.30;11.57;;;3.70;99.90;;;;;;4992591;28;20037;-66
2022/12/09 03:06:26;;;;;;;24.40;9.23;;;3.80;99.90;;;;;;4993756;28;20039;-66
2022/12/09 03:08:58;;;;;;;19.95;9.10;;;3.90;99.90;;;;;;4993671;28;20034;-66
2022/12/09 03:11:25;;;;;;;23.90;10.07;;;3.90;99.90;;;;;;4992365;28;20117;-68
2022/12/09 03:14:09;;;;;;;22.20;9.77;;;4.00;99.90;;;;;;4994178;28;20161;-68
2022/12/09 03:16:59;;;;;;;21.73;9.63;;;4.00;99.90;;;;;;4993475;28;20090;-68
2022/12/09 03:19:55;;;;;;;18.67;8.00;;;4.00;99.90;;;;;;4993856;28;20358;-68
2022/12/09 03:22:26;;;;;;;23.88;8.77;;;4.00;99.90;;;;;;4991535;28;20069;-66
2022/12/09 03:24:54;;;;;;;21.27;9.52;;;4.00;99.90;;;;;;4993247;28;20098;-66
2022/12/09 03:27:27;;;;;;;24.30;9.73;;;4.10;99.90;;;;;;4992064;28;20032;-67
2022/12/09 03:29:54;;;;;;;20.15;9.40;;;4.10;99.90;;;;;;4993455;28;20022;-67
2022/12/09 03:32:25;;;;;;;26.65;9.00;;;4.10;99.90;;;;;;4993057;28;20169;-67
2022/12/09 03:34:56;;;;;;;26.50;9.23;;;4.00;99.90;;;;;;4993688;28;20033;-67
2022/12/09 03:37:22;;;;;;;33.30;11.05;;;4.00;99.90;;;;;;4995973;28;20086;-66
2022/12/09 03:39:50;;;;;;;24.40;9.88;;;4.00;99.90;;;;;;4996672;28;20030;-66
2022/12/09 03:42:19;;;;;;;27.65;10.20;;;4.00;99.90;;;;;;4997315;28;20041;-66
2022/12/09 03:44:56;;;;;;;26.20;10.25;;;4.10;99.90;;;;;;4995530;28;20026;-66
2022/12/09 03:47:21;;;;;;;27.80;9.68;;;4.00;99.90;;;;;;4996841;28;20034;-66
2022/12/09 03:49:47;;;;;;;35.83;11.27;;;4.00;99.90;;;;;;4996260;28;20018;-66
2022/12/09 03:52:15;;;;;;;31.52;11.10;;;3.90;99.90;;;;;;4996591;28;20034;-66
2022/12/09 03:54:46;;;;;;;33.80;11.90;;;4.00;99.90;;;;;;4995394;28;20031;-66
2022/12/09 03:57:17;;;;;;;29.58;10.20;;;3.90;99.90;;;;;;4995805;28;20038;-67
2022/12/09 03:59:56;;;;;;;35.38;12.63;;;3.80;99.90;;;;;;4995440;28;20057;-66
2022/12/09 04:02:23;;;;;;;37.58;12.65;;;3.70;99.90;;;;;;4996482;28;20030;-67
2022/12/09 04:04:48;;;;;;;35.75;12.60;;;3.80;99.90;;;;;;4995187;28;20389;-66
2022/12/09 04:07:14;;;;;;;33.08;11.68;;;3.90;99.90;;;;;;4994987;28;20026;-66
2022/12/09 04:09:40;;;;;;;29.75;9.93;;;3.90;99.90;;;;;;4996545;28;20036;-66
2022/12/09 04:12:05;;;;;;;38.55;11.23;;;4.00;99.90;;;;;;4995034;28;20029;-66
2022/12/09 04:14:31;;;;;;;35.13;12.05;;;4.00;99.90;;;;;;4996539;28;20022;-66
2022/12/09 04:16:56;;;;;;;39.15;13.27;;;4.00;99.90;;;;;;4995082;28;20073;-66
2022/12/09 04:19:22;;;;;;;36.65;11.77;;;4.00;99.90;;;;;;5011195;28;20037;-66
2022/12/09 04:21:47;;;;;;;31.10;11.13;;;4.10;99.90;;;;;;4996640;28;20022;-66
2022/12/09 04:24:13;;;;;;;32.35;11.90;;;4.10;99.90;;;;;;4994816;28;20023;-66
2022/12/09 04:26:38;;;;;;;33.22;11.93;;;4.00;99.90;;;;;;4994651;28;20030;-67
2022/12/09 04:29:04;;;;;;;35.88;12.43;;;4.10;99.90;;;;;;4995062;28;20022;-66
2022/12/09 04:31:29;;;;;;;34.88;12.48;;;4.10;99.90;;;;;;4995085;28;20023;-66
2022/12/09 04:33:55;;;;;;;37.25;12.52;;;4.00;99.90;;;;;;4994625;28;20038;-67
2022/12/09 04:36:21;;;;;;;34.20;12.30;;;4.00;99.90;;;;;;4994571;28;20030;-67
2022/12/09 04:38:47;;;;;;;37.08;13.88;;;3.90;99.90;;;;;;4994435;28;20037;-67
2022/12/09 04:41:14;;;;;;;33.78;11.73;;;3.90;99.90;;;;;;4996042;28;20026;-66
2022/12/09 04:43:40;;;;;;;33.15;11.25;;;3.80;99.90;;;;;;4994426;28;20026;-66
2022/12/09 04:46:13;;;;;;;34.00;12.45;;;3.90;99.90;;;;;;4995589;28;20145;-66
2022/12/09 04:48:39;;;;;;;38.22;12.40;;;3.90;99.90;;;;;;4994773;28;20044;-67
2022/12/09 04:51:09;;;;;;;31.05;12.32;;;3.90;99.90;;;;;;4994659;28;20377;-67
2022/12/09 04:53:36;;;;;;;33.00;11.60;;;3.90;99.90;;;;;;4996112;28;20037;-66
2022/12/09 04:56:04;;;;;;;33.10;11.32;;;3.90;99.90;;;;;;4994494;28;20037;-66
2022/12/09 04:58:30;;;;;;;38.13;12.60;;;3.80;99.90;;;;;;4994583;28;20034;-67
2022/12/09 05:00:56;;;;;;;33.70;12.77;;;3.90;99.90;;;;;;4994341;28;20112;-67
2022/12/09 05:03:22;;;;;;;37.35;13.05;;;3.90;99.90;;;;;;4995650;28;20113;-67
2022/12/09 05:05:47;;;;;;;34.75;11.75;;;3.80;99.90;;;;;;4995485;28;20033;-66
2022/12/09 05:08:13;;;;;;;37.28;12.30;;;3.80;99.90;;;;;;4994242;28;20085;-66
2022/12/09 05:10:38;;;;;;;36.17;12.00;;;3.80;99.90;;;;;;4995435;28;20030;-67
2022/12/09 05:13:05;;;;;;;32.08;12.30;;;3.80;99.90;;;;;;4993872;28;20084;-67
2022/12/09 05:15:31;;;;;;;35.05;12.93;;;3.90;99.90;;;;;;4994845;28;20023;-67
2022/12/09 05:17:57;;;;;;;34.40;11.90;;;3.90;99.90;;;;;;4994943;28;20037;-67
2022/12/09 05:20:27;;;;;;;34.25;12.45;;;4.00;99.90;;;;;;4993805;28;20033;-67
2022/12/09 05:22:54;;;;;;;33.08;12.63;;;3.80;99.90;;;;;;4995279;28;20102;-66
2022/12/09 05:25:19;;;;;;;38.10;12.95;;;3.80;99.90;;;;;;4995120;28;20034;-66
2022/12/09 05:27:45;;;;;;;41.03;13.73;;;3.60;99.90;;;;;;4993447;28;20134;-66
2022/12/09 05:30:10;;;;;;;32.17;11.40;;;3.80;99.90;;;;;;4994769;28;20077;-66
2022/12/09 05:32:36;;;;;;;40.22;12.43;;;3.80;99.90;;;;;;4994771;28;20085;-66
2022/12/09 05:35:01;;;;;;;33.92;11.88;;;3.70;99.90;;;;;;4993491;28;20023;-66
2022/12/09 05:37:27;;;;;;;30.45;10.60;;;3.50;99.90;;;;;;4993389;28;20036;-66
2022/12/09 05:39:52;;;;;;;32.35;11.30;;;3.40;99.90;;;;;;4993986;28;20069;-66
2022/12/09 05:42:18;;;;;;;30.35;11.23;;;3.40;99.90;;;;;;4993875;28;20074;-66
2022/12/09 05:44:43;;;;;;;36.60;11.85;;;3.30;99.90;;;;;;4994858;28;20026;-66
2022/12/09 05:47:09;;;;;;;29.83;10.13;;;3.40;99.90;;;;;;4993722;28;20022;-66
2022/12/09 05:49:34;;;;;;;33.10;10.27;;;3.50;99.90;;;;;;4993604;28;20019;-66
2022/12/09 05:52:00;;;;;;;29.65;11.35;;;3.50;99.90;;;;;;4994420;28;20026;-66
2022/12/09 05:54:25;;;;;;;31.48;10.90;;;3.50;99.90;;;;;;4994308;28;20026;-66
2022/12/09 05:56:51;;;;;;;29.48;10.10;;;3.60;99.90;;;;;;4993699;28;20037;-66
2022/12/09 05:59:17;;;;;;;30.15;11.05;;;3.60;99.90;;;;;;4993942;28;20027;-66
2022/12/09 06:01:42;;;;;;;26.52;9.68;;;3.60;99.90;;;;;;4993342;28;20032;-66
2022/12/09 06:04:08;;;;;;;31.55;11.18;;;3.60;99.90;;;;;;4993063;28;20405;-66
2022/12/09 06:06:33;;;;;;;33.22;10.02;;;3.60;99.90;;;;;;4992858;28;20457;-66
2022/12/09 06:09:00;;;;;;;31.83;10.85;;;3.60;99.90;;;;;;4994178;28;20026;-66
2022/12/09 06:11:26;;;;;;;34.45;11.00;;;3.70;99.90;;;;;;4993240;28;20034;-66
2022/12/09 06:13:52;;;;;;;31.27;10.85;;;3.50;99.90;;;;;;4993191;28;20026;-67
2022/12/09 06:16:20;;;;;;;32.42;10.15;;;3.50;99.90;;;;;;4992827;28;20057;-66
2022/12/09 06:18:46;;;;;;;30.42;10.73;;;3.60;99.90;;;;;;4993621;28;20181;-66
2022/12/09 06:21:13;;;;;;;30.33;11.38;;;3.60;99.90;;;;;;4994085;28;20062;-66
2022/12/09 06:23:40;;;;;;;30.73;10.60;;;3.50;99.90;;;;;;4993686;28;20034;-66
2022/12/09 06:26:06;;;;;;;26.17;9.18;;;3.40;99.90;;;;;;4994120;28;20031;-66
2022/12/09 06:28:32;;;;;;;30.08;8.82;;;3.50;99.90;;;;;;4994756;28;20033;-66
2022/12/09 06:30:57;;;;;;;28.88;9.90;;;3.50;99.90;;;;;;4994197;28;20022;-66
2022/12/09 06:33:23;;;;;;;30.45;10.32;;;3.60;99.90;;;;;;4992683;28;20022;-66
2022/12/09 06:35:49;;;;;;;32.08;9.50;;;3.60;99.90;;;;;;4993922;28;20054;-66
2022/12/09 06:38:14;;;;;;;29.42;8.80;;;3.60;99.90;;;;;;4994408;28;20054;-66
2022/12/09 06:40:41;;;;;;;31.35;10.23;;;3.50;99.90;;;;;;4992637;28;20022;-66
2022/12/09 06:43:08;;;;;;;30.77;9.77;;;3.50;99.90;;;;;;4994153;28;20029;-66
2022/12/09 06:45:35;;;;;;;31.27;10.32;;;3.50;99.90;;;;;;4993991;28;20065;-66
2022/12/09 06:48:00;;;;;;;29.23;10.02;;;3.60;99.90;;;;;;4994074;28;20030;-66
2022/12/09 06:50:26;;;;;;;32.75;9.90;;;3.60;99.90;;;;;;4992524;28;20037;-66
2022/12/09 06:52:51;;;;;;;32.83;9.90;;;3.60;99.90;;;;;;4994073;28;20019;-66
2022/12/09 06:55:17;;;;;;;34.92;10.40;;;3.50;99.90;;;;;;4992691;28;20022;-66
2022/12/09 06:57:42;;;;;;;29.65;9.63;;;3.50;99.90;;;;;;4992429;28;20104;-66
2022/12/09 07:00:08;;;;;;;28.33;10.07;;;3.50;99.90;;;;;;4993940;28;20536;-66
2022/12/09 07:02:34;;;;;;;34.28;10.40;;;3.50;99.90;;;;;;4994002;28;20023;-66
2022/12/09 07:05:00;;;;;;;28.88;10.65;;;3.50;99.90;;;;;;4993661;28;20035;-66
2022/12/09 07:07:25;;;;;;;35.00;10.68;;;3.50;99.90;;;;;;4993499;28;20037;-66
2022/12/09 07:09:51;;;;;;;31.25;10.85;;;3.40;99.90;;;;;;4992631;28;20034;-66
2022/12/09 07:12:17;;;;;;;27.58;10.23;;;3.10;99.90;;;;;;4994607;28;20022;-66
2022/12/09 07:14:42;;;;;;;37.70;11.45;;;3.10;99.90;;;;;;4997348;28;20061;-66
2022/12/09 07:17:17;;;;;;;33.63;10.90;;;3.20;99.90;;;;;;4997168;28;20033;-66
2022/12/09 07:19:43;;;;;;;27.52;10.38;;;3.00;99.90;;;;;;4997360;28;20030;-66
2022/12/09 07:22:09;;;;;;;30.02;11.25;;;3.00;99.90;;;;;;4996762;28;20030;-66
2022/12/09 07:24:37;;;;;;;32.45;10.65;;;3.10;99.90;;;;;;4995966;28;20505;-67
2022/12/09 07:27:04;;;;;;;32.63;11.55;;;3.00;99.90;;;;;;4996985;28;20027;-66
2022/12/09 07:29:31;;;;;;;39.13;13.07;;;3.00;99.90;;;;;;4996400;28;20030;-66
2022/12/09 07:31:57;;;;;;;34.13;11.73;;;2.80;99.90;;;;;;4996110;28;20022;-66
2022/12/09 07:34:22;;;;;;;34.55;11.88;;;3.00;99.90;;;;;;4996027;28;20034;-66
2022/12/09 07:36:48;;;;;;;39.05;13.57;;;2.80;99.90;;;;;;4996830;28;20030;-66
2022/12/09 07:39:16;;;;;;;42.58;14.55;;;2.80;99.90;;;;;;4997453;28;20026;-66
2022/12/09 07:41:42;;;;;;;44.05;14.50;;;2.80;99.90;;;;;;4995601;28;20034;-66
2022/12/09 07:44:09;;;;;;;33.83;12.23;;;3.00;99.90;;;;;;4996773;28;20157;-66
2022/12/09 07:46:35;;;;;;;32.85;12.07;;;3.00;99.90;;;;;;4996589;28;20026;-66
2022/12/09 07:49:02;;;;;;;33.83;12.52;;;3.10;99.90;;;;;;4996907;28;20023;-66
2022/12/09 07:51:28;;;;;;;37.10;13.45;;;3.20;99.90;;;;;;4996975;28;20023;-66
2022/12/09 07:53:54;;;;;;;34.25;12.43;;;3.10;99.90;;;;;;4996598;28;20022;-66
2022/12/09 07:56:20;;;;;;;36.38;12.10;;;3.10;99.90;;;;;;4995206;28;20027;-66
2022/12/09 07:58:47;;;;;;;34.75;12.85;;;3.10;99.90;;;;;;4995294;28;20038;-66
2022/12/09 08:01:16;;;;;;;33.28;12.27;;;3.10;99.90;;;;;;4996766;28;20019;-66
2022/12/09 08:03:42;;;;;;;31.60;11.32;;;3.10;99.90;;;;;;4995493;28;20027;-66
2022/12/09 08:06:12;;;;;;;34.95;11.93;;;3.00;99.90;;;;;;4995898;28;20026;-66
2022/12/09 08:08:37;;;;;;;33.03;11.45;;;3.10;99.90;;;;;;4995073;28;20029;-66
2022/12/09 08:11:08;;;;;;;45.95;13.48;;;3.20;99.90;;;;;;4996590;28;20022;-66
2022/12/09 08:13:35;;;;;;;41.90;12.52;;;3.10;99.90;;;;;;4996196;28;20110;-66
2022/12/09 08:16:02;;;;;;;47.45;13.23;;;3.00;99.90;;;;;;4994869;28;20065;-66
2022/12/09 08:18:28;;;;;;;37.63;11.93;;;3.10;99.90;;;;;;4996048;28;20101;-66
2022/12/09 08:20:53;;;;;;;39.78;13.35;;;3.10;99.90;;;;;;4995204;28;20118;-66
2022/12/09 08:23:19;;;;;;;41.85;12.90;;;3.00;99.90;;;;;;4995813;28;20030;-66
2022/12/09 08:25:44;;;;;;;63.67;13.73;;;3.00;99.90;;;;;;4995931;28;20034;-66
2022/12/09 08:28:10;;;;;;;110.55;19.10;;;3.00;99.90;;;;;;4995799;28;20030;-66
2022/12/09 08:30:35;;;;;;;163.82;24.70;;;2.90;99.90;;;;;;4995151;28;20019;-66
2022/12/09 08:33:01;;;;;;;62.03;14.75;;;2.90;99.90;;;;;;4994620;28;20029;-66
2022/12/09 08:35:28;;;;;;;115.90;23.42;;;3.00;99.90;;;;;;4996077;28;20485;-66
2022/12/09 08:37:54;;;;;;;79.40;16.60;;;3.00;99.90;;;;;;4995793;28;20027;-67
2022/12/09 08:40:19;;;;;;;33.55;12.40;;;3.10;99.90;;;;;;4994586;28;20037;-67
2022/12/09 08:42:45;;;;;;;32.35;12.20;;;3.20;99.90;;;;;;4995461;28;20112;-68
2022/12/09 08:45:10;;;;;;;35.33;10.75;;;3.30;99.90;;;;;;4995646;28;20030;-67
2022/12/09 08:47:36;;;;;;;45.78;11.95;;;3.40;99.90;;;;;;4995476;28;20034;-67
2022/12/09 08:50:02;;;;;;;48.45;12.55;;;3.40;99.90;;;;;;4995198;28;20018;-68
2022/12/09 08:52:28;;;;;;;30.98;9.98;;;3.40;99.90;;;;;;4995486;28;20027;-67
2022/12/09 08:54:53;;;;;;;28.65;10.75;;;3.40;99.90;;;;;;4994861;28;20023;-67
2022/12/09 08:57:23;;;;;;;34.22;11.70;;;3.30;99.90;;;;;;4993479;28;20088;-67
2022/12/09 08:59:49;;;;;;;34.72;11.20;;;3.20;99.90;;;;;;4992281;28;20042;-67
2022/12/09 09:02:15;;;;;;;31.63;10.30;;;3.20;99.90;;;;;;4993414;28;20030;-67
2022/12/09 09:04:40;;;;;;;27.38;10.18;;;3.20;99.90;;;;;;4993458;28;20030;-67
2022/12/09 09:07:06;;;;;;;28.73;10.65;;;3.20;99.90;;;;;;4994678;28;20030;-67
2022/12/09 09:09:32;;;;;;;27.98;10.43;;;3.00;99.90;;;;;;4993999;28;20053;-67
2022/12/09 09:11:57;;;;;;;35.55;11.40;;;3.00;99.90;;;;;;4995252;28;20026;-67
2022/12/09 09:14:23;;;;;;;26.67;9.65;;;2.80;99.90;;;;;;4995139;28;20026;-67
2022/12/09 09:16:49;;;;;;;32.45;12.20;;;2.80;99.90;;;;;;4993819;28;20035;-67
2022/12/09 09:19:20;;;;;;;32.20;11.43;;;2.80;99.90;;;;;;4993832;28;20105;-67
2022/12/09 09:21:45;;;;;;;27.35;11.05;;;2.90;99.90;;;;;;4993787;28;20082;-67
2022/12/09 09:24:14;;;;;;;33.08;10.63;;;3.00;99.90;;;;;;4993718;28;20101;-67
2022/12/09 09:26:41;;;;;;;35.58;11.23;;;3.10;99.90;;;;;;4994784;28;20022;-67
2022/12/09 09:29:12;;;;;;;29.90;10.40;;;3.20;99.90;;;;;;4993715;28;20030;-67
2022/12/09 09:31:37;;;;;;;32.50;10.70;;;3.20;99.90;;;;;;4993795;28;20058;-67
2022/12/09 09:34:03;;;;;;;29.52;10.07;;;3.30;99.90;;;;;;4993342;28;20104;-67
2022/12/09 09:36:29;;;;;;;31.88;11.13;;;3.40;99.90;;;;;;4993664;28;20034;-67
2022/12/09 09:38:56;;;;;;;27.20;10.02;;;3.50;99.90;;;;;;4994016;28;20026;-67
2022/12/09 09:41:27;;;;;;;26.98;10.32;;;3.50;99.90;;;;;;4993568;28;20031;-67
2022/12/09 09:43:55;;;;;;;28.35;9.75;;;3.50;99.90;;;;;;4994618;28;20023;-67
2022/12/09 09:46:30;;;;;;;25.50;9.60;;;3.50;99.90;;;;;;4994325;28;20074;-67
2022/12/09 09:48:57;;;;;;;25.80;10.18;;;3.50;99.90;;;;;;4994560;28;20054;-67
2022/12/09 09:51:23;;;;;;;31.95;11.50;;;3.50;99.90;;;;;;4994465;28;20509;-67
2022/12/09 09:53:50;;;;;;;34.83;11.65;;;3.40;99.90;;;;;;4993398;28;20054;-67
2022/12/09 09:56:39;;;;;;;31.27;11.00;;;3.30;99.90;;;;;;4994223;28;20022;-67
2022/12/09 09:59:36;;;;;;;30.85;10.60;;;3.10;99.90;;;;;;4994470;28;20034;-67
2022/12/09 10:02:10;;;;;;;28.88;10.32;;;3.10;99.90;;;;;;4994356;28;20026;-67
2022/12/09 10:04:49;;;;;;;27.15;9.98;;;3.20;99.90;;;;;;4994590;28;20023;-67
2022/12/09 10:07:36;;;;;;;30.60;11.25;;;3.20;99.90;;;;;;4994064;28;20026;-67
2022/12/09 10:10:27;;;;;;;30.40;11.25;;;3.30;99.90;;;;;;4993320;28;20014;-67
2022/12/09 10:13:22;;;;;;;27.58;11.07;;;3.10;99.90;;;;;;4993855;28;20025;-67
2022/12/09 10:16:13;;;;;;;26.67;11.05;;;3.10;99.90;;;;;;4993838;28;20041;-67
2022/12/09 10:18:55;;;;;;;29.67;10.93;;;3.10;99.90;;;;;;4993425;28;20025;-67
2022/12/09 10:21:21;;;;;;;26.60;10.65;;;3.20;99.90;;;;;;4993543;28;20034;-67
2022/12/09 10:23:48;;;;;;;24.23;10.38;;;3.10;99.90;;;;;;4992915;28;20034;-66
2022/12/09 10:26:25;;;;;;;32.88;11.27;;;3.10;99.90;;;;;;4993788;28;20026;-67
2022/12/09 10:29:06;;;;;;;33.58;11.75;;;3.00;99.90;;;;;;4994083;28;20026;-67
2022/12/09 10:31:32;;;;;;;26.42;10.02;;;2.80;99.90;;;;;;4994304;28;20022;-67
2022/12/09 10:33:57;;;;;;;31.02;11.77;;;3.00;99.90;;;;;;4993303;28;20037;-67
2022/12/09 10:36:26;;;;;;;28.77;11.18;;;3.10;99.90;;;;;;4994007;28;20022;-67
2022/12/09 10:38:51;;;;;;;30.23;11.75;;;2.80;99.90;;;;;;4994064;28;20030;-67
2022/12/09 10:44:29;;;;;;;27.67;10.10;;;3.10;99.90;;;;;;4973473;28;20030;-67
2022/12/09 10:47:06;;;;;;;29.35;10.90;;;3.20;99.90;;;;;;4998094;28;20034;-67
2022/12/09 10:49:35;;;;;;;27.27;11.38;;;3.30;99.90;;;;;;4996839;28;20027;-67
2022/12/09 10:52:03;;;;;;;30.95;12.05;;;3.30;99.90;;;;;;4996509;28;20490;-67
2022/12/09 10:54:33;;;;;;;28.52;10.75;;;3.30;99.90;;;;;;4998521;28;20034;-67
2022/12/09 10:57:06;;;;;;;29.17;10.35;;;3.40;99.90;;;;;;4996257;28;20042;-67
2022/12/09 10:59:34;;;;;;;27.25;11.00;;;3.40;99.90;;;;;;4998042;28;20138;-67
2022/12/09 11:02:19;;;;;;;28.02;10.68;;;3.40;99.90;;;;;;4998136;28;20025;-67
2022/12/09 11:04:50;;;;;;;24.83;10.20;;;3.40;99.90;;;;;;4996839;28;20026;-67
2022/12/09 11:07:21;;;;;;;20.73;9.15;;;3.40;99.90;;;;;;4996269;28;20080;-66
2022/12/09 11:10:06;;;;;;;22.75;9.18;;;3.40;99.90;;;;;;4998258;28;20034;-66
2022/12/09 11:12:38;;;;;;;19.15;8.38;;;3.30;99.90;;;;;;4999296;28;20105;-67
2022/12/09 11:15:42;;;;;;;21.50;9.27;;;3.40;99.90;;;;;;4998621;28;20022;-67
2022/12/09 11:18:18;;;;;;;21.08;8.70;;;3.40;99.90;;;;;;4959796;28;20518;-67
2022/12/09 11:20:55;;;;;;;22.48;9.48;;;3.60;99.90;;;;;;4976294;28;20045;-67
2022/12/09 11:23:20;;;;;;;27.63;9.60;;;3.60;99.90;;;;;;4976117;28;20031;-67
2022/12/09 11:26:00;;;;;;;21.42;10.02;;;3.70;99.90;;;;;;4975582;28;20104;-66
2022/12/09 11:28:32;;;;;;;27.27;10.38;;;3.80;99.90;;;;;;4959669;28;20038;-67
2022/12/09 11:31:06;;;;;;;24.92;10.65;;;3.60;99.90;;;;;;4975773;28;20386;-67
2022/12/09 11:33:36;;;;;;;23.63;9.18;;;3.70;99.90;;;;;;4975835;28;20030;-67
2022/12/09 11:36:09;;;;;;;21.52;9.18;;;3.80;99.90;;;;;;4976127;28;20021;-67
2022/12/09 11:38:41;;;;;;;23.98;9.73;;;3.60;99.90;;;;;;4975884;28;20029;-67
2022/12/09 11:41:09;;;;;;;;;;;3.50;99.90;;;;;;4959751;28;20035;-67
2022/12/09 11:43:39;;;;;;;22.17;8.30;;;3.30;99.90;;;;;;4975302;28;19988;-67
2022/12/09 11:46:29;;;;;;;18.95;7.70;;;3.40;99.90;;;;;;4975417;28;20171;-67
2022/12/09 11:49:02;;;;;;;19.95;8.45;;;3.50;99.90;;;;;;4975283;28;20110;-67
2022/12/09 11:51:33;;;;;;;20.98;8.00;;;3.70;99.90;;;;;;4975555;28;20030;-67
2022/12/09 11:54:12;;;;;;;16.38;7.82;;;3.70;99.90;;;;;;4988640;28;20038;-67
2022/12/09 11:59:16;;;;;;;23.65;8.23;;;3.60;99.90;;;;;;5033411;28;20042;-67
2022/12/09 12:01:55;;;;;;;21.65;8.10;;;3.70;99.90;;;;;;5036237;28;20025;-67
2022/12/09 12:04:37;;;;;;;16.10;6.97;;;3.70;99.90;;;;;;5036160;28;20025;-68
2022/12/09 12:07:14;;;;;;;15.70;6.85;;;3.60;99.90;;;;;;5034420;28;20034;-68
2022/12/09 12:09:51;;;;;;;22.13;8.13;;;3.80;99.90;;;;;;5035353;28;20025;-67
2022/12/09 12:12:39;;;;;;;16.48;8.25;;;3.90;99.90;;;;;;5036021;28;20488;-67
2022/12/09 12:15:31;;;;;;;23.20;8.75;;;3.70;99.90;;;;;;5035715;28;20017;-68
2022/12/09 12:17:59;;;;;;;22.20;9.02;;;3.90;99.90;;;;;;5035826;28;20029;-68
2022/12/09 12:20:39;;;;;;;22.33;9.55;;;3.70;99.90;;;;;;5034251;28;20068;-68
2022/12/09 12:23:17;;;;;;;19.45;8.90;;;3.70;99.90;;;;;;5034273;28;20030;-68
2022/12/09 12:26:05;;;;;;;24.98;8.73;;;3.80;99.90;;;;;;5034227;28;20032;-68
2022/12/09 12:28:55;;;;;;;22.60;8.63;;;3.90;99.90;;;;;;5034020;28;20423;-67
2022/12/09 12:31:39;;;;;;;22.52;8.70;;;3.80;99.90;;;;;;5035378;28;20029;-67
2022/12/09 12:34:30;;;;;;;23.70;9.07;;;3.90;99.90;;;;;;5035110;28;20071;-67
2022/12/09 12:37:04;;;;;;;23.70;9.15;;;3.90;99.90;;;;;;5033780;28;20033;-67
2022/12/09 12:39:45;;;;;;;24.85;8.40;;;3.90;99.90;;;;;;5035278;28;20025;-67
2022/12/09 12:46:15;;;;;;;25.65;9.95;;;3.90;99.90;;;;;;5033833;28;20128;-67
2022/12/09 12:49:07;;;;;;;20.42;7.93;;;3.90;99.90;;;;;;5034815;28;20045;-67
2022/12/09 12:51:37;;;;;;;29.33;10.07;;;3.90;99.90;;;;;;5034560;28;20032;-67
2022/12/09 12:54:16;;;;;;;25.75;9.68;;;4.00;99.90;;;;;;5035204;28;20032;-67
2022/12/09 12:57:08;;;;;;;21.30;9.70;;;4.00;99.90;;;;;;5033804;28;20056;-67
2022/12/09 12:59:57;;;;;;;23.52;9.85;;;4.00;99.90;;;;;;5013342;28;20034;-67
2022/12/09 13:02:47;;;;;;;24.50;8.88;;;4.00;99.90;;;;;;5034758;28;20094;-67
2022/12/09 13:05:25;;;;;;;23.83;8.95;;;4.00;99.90;;;;;;5034642;28;20079;-67